Station FSKM2 - 8574728 - Francis Scott Key Bridge, MD Image indicating link to RSS feed of recent meteorological observations for station FSKM2


Conditions at FSKM2 as of
(1:00 am EDT)
0500 GMT on 04/15/2024:
     

Click on the graph icon in the table below to see a time series plot of the last five days of that observation.

5-day plot - Wind Direction Wind Direction (WDIR): NE ( 40 deg true )
5-day plot - Wind Speed Wind Speed (WSPD): 6.0 kts
5-day plot - Wind Gust Wind Gust (GST): 8.0 kts
5-day plot - Air Temperature Air Temperature (ATMP): 66.7 °F
5-day plot - Wind Speed at 10 Meters Wind Speed at 10 meters (WSPD10M): 5.8 kts
5-day plot - Wind Speed at 20 Meters Wind Speed at 20 meters (WSPD20M): 5.8 kts
5-day plot -  Wind Speed, Wind Gust and Atmospheric Pressure Combined plot of Wind Speed, Gust, and Air Pressure
NOS Water Level Observation Network Water Level
Previous observations
TIME
(EDT)
5-day plot - Wind Direction
WDIR
 
5-day plot - Wind Speed
WSPD
kts
5-day plot - Wind Gust
GST
kts
5-day plot - Wave Height
WVHT
ft
5-day plot - Dominant Wave Period
DPD
sec
5-day plot - Average Wave Period
APD
sec
5-day plot - Mean Wave Direction
MWD
 
5-day plot - Atmospheric Pressure
PRES
in
5-day plot - Pressure Tendency
PTDY
in
5-day plot - Air Temperature
ATMP
°F
5-day plot - Water Temperature
WTMP
°F
5-day plot - Dew Point
DEWP
°F
5-day plot - Salinity
SAL
psu
5-day plot - Visibility
VIS
nmi
5-day plot - Tide (above MLLW)
TIDE
ft
2024-04-15 12:54 am NE 8.0 8.9------ 67.6-----
2024-04-15 12:48 amENE 6.0 7.0------ 66.9-----
2024-04-15 12:42 amENE 7.0 8.0------ 66.7-----
2024-04-15 12:36 am E 7.0 9.9------ 67.3-----
2024-04-15 12:30 amENE 8.0 9.9------ 67.5-----
2024-04-15 12:24 amENE 8.0 8.9------ 67.6-----
2024-04-15 12:18 am E 7.0 8.9------ 68.5-----
2024-04-15 12:12 am E 8.0 9.9------ 68.4-----
2024-04-15 12:06 amENE 8.9 11.1------ 68.0-----
2024-04-15 12:00 am E 14.0 15.9------ 68.9-----
2024-04-14 11:54 pmENE 8.9 12.0------ 68.5-----
2024-04-14 11:48 pm E 9.9 12.0------ 68.5-----
2024-04-14 11:42 pm E 8.9 9.9------ 68.7-----
2024-04-14 11:36 pmESE 6.0 8.0------ 69.4-----
2024-04-14 11:30 pmESE 5.1 7.0------ 71.4-----
2024-04-14 11:24 pmESE 5.1 6.0------ 73.2-----
2024-04-14 11:18 pm E 4.1 5.1------ 74.1-----
2024-04-14 11:12 pm- 0.0 1.9------ 76.1-----
2024-04-14 11:06 pmSSW 1.0 2.9------ 76.8-----
2024-04-14 11:00 pmNNE 7.0 9.9------ 73.9-----
2024-04-14 10:54 pmNNE 11.1 14.0------ 73.9-----
2024-04-14 10:48 pmNNE 12.0 18.1------ 70.5-----
2024-04-14 10:42 pm S 2.9 5.1------ 75.0-----
2024-04-14 10:36 pm S 5.1 7.0------ 75.4-----
2024-04-14 10:30 pm S 5.1 6.0------ 75.6-----
2024-04-14 10:24 pm S 2.9 4.1------ 76.1-----
2024-04-14 10:18 pmSSW 1.0 2.9------ 76.3-----
2024-04-14 10:12 pmSSW 1.9 5.1------ 76.3-----
2024-04-14 10:06 pmSSW 1.9 4.1------ 76.1-----
2024-04-14 10:00 pmSSW 1.9 2.9------ 75.9-----
2024-04-14 09:54 pmWSW 1.9 2.9------ 75.0-----
2024-04-14 09:48 pm W 2.9 7.0------ 74.8-----
2024-04-14 09:42 pm W 1.9 2.9------ 72.9-----
2024-04-14 09:36 pm NW 4.1 5.1------ 73.4-----
2024-04-14 09:30 pm W 4.1 9.9------ 77.0-----
2024-04-14 09:24 pm SW 2.9 8.0------ 77.2-----
2024-04-14 09:18 pmSSW 4.1 8.0------ 77.4-----
2024-04-14 09:12 pm SW 1.9 6.0------ 77.4-----
2024-04-14 09:06 pm SW 4.1 8.0------ 77.7-----
2024-04-14 09:00 pmWSW 1.9 5.1------ 77.4-----
2024-04-14 08:54 pm W 6.0 12.0------ 77.7-----
2024-04-14 08:48 pm W 5.1 8.9------------
2024-04-14 08:42 pmWSW 4.1 8.0------------
2024-04-14 08:36 pmWSW 5.1 8.9------------
2024-04-14 08:30 pm--------- 78.3-----
2024-04-14 08:24 pm--------- 78.6-----
2024-04-14 08:18 pmSSW 8.0 13.0------ 78.6-----
2024-04-14 08:12 pmSSW 8.0 13.0------ 78.6-----
2024-04-14 08:06 pmSSW 8.9 15.0------ 79.0-----
2024-04-14 08:00 pmSSW 11.1 15.9------ 78.6-----
2024-04-14 07:54 pmSSW 11.1 17.1------ 78.6-----
2024-04-14 07:48 pmSSW 12.0 15.9------ 78.8-----
2024-04-14 07:42 pmSSW 14.0 19.0------ 79.2-----
2024-04-14 07:36 pmSSW 15.0 19.0------ 79.2-----
2024-04-14 07:30 pmSSW 12.0 18.1------ 79.3-----
2024-04-14 07:24 pmSSW 14.0 21.0------ 79.3-----
2024-04-14 07:00 pmSSW 12.0 15.9------------
2024-04-14 06:54 pmSSW 13.0 18.1------------
2024-04-14 06:48 pmSSW 13.0 17.1------ 80.2-----
2024-04-14 06:42 pmSSW 13.0 19.0------ 80.4-----
2024-04-14 06:36 pmSSW 17.1 25.1------ 80.6-----
2024-04-14 06:30 pmSSW 14.0 22.9------ 80.4-----
2024-04-14 06:24 pmSSW 17.1 24.1------ 80.8-----
2024-04-14 06:18 pmSSW 12.0 15.9------ 80.6-----
2024-04-14 06:12 pmSSW 12.0 17.1------ 80.6-----
2024-04-14 06:06 pmSSW 15.0 21.0------ 80.6-----
2024-04-14 06:00 pmSSW 13.0 22.0------ 80.4-----
2024-04-14 05:54 pmSSW 13.0 15.9------ 80.4-----
2024-04-14 05:48 pmSSW 15.9 24.1------------
2024-04-14 05:42 pmSSW 19.0 26.0------------
2024-04-14 05:36 pmSSW 14.0 22.0------------
2024-04-14 05:30 pmSSW 15.9 22.9------------
2024-04-14 05:24 pmSSW 18.1 25.1------------
2024-04-14 05:18 pmSSW 15.9 25.1------ 79.9-----
2024-04-14 05:12 pmSSW 13.0 19.0------ 79.2-----
2024-04-14 05:06 pmSSW 15.9 21.0------ 79.5-----
2024-04-14 05:00 pmSSW 13.0 20.0------ 79.0-----
2024-04-14 04:54 pmSSW 15.9 25.1------ 79.0-----
2024-04-14 04:48 pmSSW 14.0 20.0------ 78.8-----
2024-04-14 04:42 pmSSW 13.0 19.0------ 79.2-----
2024-04-14 04:36 pmSSW 18.1 27.0------ 79.0-----
2024-04-14 04:30 pmSSW 15.0 22.0------ 79.0-----
2024-04-14 04:24 pmSSW 14.0 19.0------ 78.3-----
2024-04-14 04:18 pmSSW 15.0 21.0------ 77.0-----
2024-04-14 04:12 pmSSW 13.0 18.1------ 78.4-----
2024-04-14 04:06 pmSSW 18.1 25.1------ 78.3-----
2024-04-14 04:00 pmSSW 18.1 25.1------ 77.9-----
2024-04-14 03:54 pmSSW 15.0 22.9------ 77.7-----
2024-04-14 03:48 pmSSW 15.9 19.0------ 77.5-----
2024-04-14 03:42 pmSSW 13.0 18.1------ 77.2-----
2024-04-14 03:36 pmSSW 14.0 19.0------ 76.6-----
2024-04-14 03:30 pmSSW 15.9 22.9------ 77.2-----
2024-04-14 03:24 pmSSW 15.9 21.0------ 76.6-----
2024-04-14 03:18 pmSSW 15.9 28.9------ 76.3-----
2024-04-14 03:12 pmSSW 12.0 15.9------ 75.2-----
2024-04-14 03:06 pm S 15.0 18.1------ 73.6-----
2024-04-14 03:00 pmSSW 14.0 21.0------------
2024-04-14 02:54 pmSSW 17.1 25.1------------
2024-04-14 02:48 pmSSW 12.0 22.9------ 75.4-----
2024-04-14 02:42 pm S 15.0 19.0------ 73.9-----
2024-04-14 02:36 pmSSW 15.0 21.0------ 74.5-----
2024-04-14 02:30 pmSSW 17.1 22.0------ 74.3-----
2024-04-14 02:24 pm S 15.9 19.0------ 73.4-----
2024-04-14 02:18 pmSSW 14.0 22.0------ 74.1-----
2024-04-14 02:12 pmSSW 17.1 22.9------ 73.8-----
2024-04-14 02:06 pmSSW 15.9 22.0------ 72.5-----
2024-04-14 02:00 pm SW 12.0 21.0------ 73.8-----
2024-04-14 01:54 pmSSW 15.9 20.0------ 73.2-----
2024-04-14 01:48 pmSSW 11.1 15.9------ 73.4-----
2024-04-14 01:42 pmSSW 14.0 18.1------ 72.5-----
2024-04-14 01:36 pmSSW 15.0 22.0------ 72.0-----
2024-04-14 01:30 pmSSW 9.9 13.0------ 72.5-----
2024-04-14 01:24 pmSSW 12.0 15.9------ 72.5-----
2024-04-14 01:18 pmSSW 15.0 22.0------ 72.1-----
2024-04-14 01:12 pmSSW 12.0 15.9------ 72.0-----
2024-04-14 01:06 pmSSW 13.0 19.0------ 72.0-----
2024-04-14 01:00 pmSSW 13.0 17.1------ 70.9-----
2024-04-14 12:54 pmSSW 15.0 21.0------ 71.1-----
2024-04-14 12:48 pmSSW 9.9 13.0------------
2024-04-14 12:42 pmSSW 12.0 15.9------------
2024-04-14 12:36 pm S 15.0 20.0------------
2024-04-14 12:30 pm S 9.9 13.0------------
2024-04-14 12:24 pmSSW 12.0 15.9------------
2024-04-14 12:18 pmSSW 8.9 15.0------ 70.2-----
2024-04-14 12:12 pmSSW 6.0 14.0------ 70.0-----
2024-04-14 12:06 pmSSW 9.9 17.1------ 69.6-----
2024-04-14 12:00 pmSSW 11.1 15.0------ 69.4-----
2024-04-14 11:54 amSSW 8.9 12.0------ 68.9-----
2024-04-14 11:48 amSSW 8.0 11.1------ 68.7-----
2024-04-14 11:42 amSSW 9.9 17.1------ 67.5-----
2024-04-14 11:36 amSSW 9.9 13.0------ 67.3-----
2024-04-14 11:30 amSSW 8.9 12.0------------
2024-04-14 11:24 am S 11.1 15.9------------
2024-04-14 11:18 amSSW 11.1 15.0------------
2024-04-14 11:12 amSSW 12.0 15.9------------
2024-04-14 11:06 amSSW 12.0 15.9------------
2024-04-14 11:00 amSSW 8.9 11.1------ 66.9-----
2024-04-14 10:54 amSSW 8.9 11.1------ 66.6-----
2024-04-14 10:48 amSSW 8.9 13.0------ 66.4-----
2024-04-14 10:42 amSSW 9.9 14.0------ 66.0-----
2024-04-14 10:36 amSSW 9.9 13.0------ 65.7-----
2024-04-14 10:30 amSSW 11.1 14.0------ 65.3-----
2024-04-14 10:24 amSSW 8.9 13.0------ 64.9-----
2024-04-14 10:18 amSSW 11.1 15.0------ 64.8-----
2024-04-14 10:12 amSSW 8.0 13.0------ 64.4-----
2024-04-14 10:06 amSSW 8.0 15.9------ 64.2-----
2024-04-14 10:00 amSSW 8.0 12.0------------
2024-04-14 09:54 amSSW 8.0 12.0------------
2024-04-14 09:48 amSSW 6.0 8.9------ 63.0-----
2024-04-14 09:42 amSSW 4.1 7.0------ 62.6-----
2024-04-14 09:36 amSSW 5.1 9.9------ 62.1-----
2024-04-14 09:30 amSSW 6.0 12.0------------
2024-04-14 09:24 amSSW 7.0 11.1------------
2024-04-14 09:18 amSSW 8.0 9.9------ 60.1-----
2024-04-14 09:12 amSSW 8.9 13.0------ 59.2-----
2024-04-14 09:06 amSSW 8.9 12.0------ 58.5-----
2024-04-14 09:00 amSSW 7.0 13.0------ 58.3-----
2024-04-14 08:54 am S 6.0 9.9------ 58.3-----
2024-04-14 08:48 am--------- 58.1-----
2024-04-14 08:42 am--------- 57.2-----
2024-04-14 08:36 am--------- 57.0-----
2024-04-14 08:30 am S 1.9 5.1------------
2024-04-14 08:24 amWSW 1.9 4.1------------
2024-04-14 08:18 amWSW 1.0 6.0------ 55.9-----
2024-04-14 08:12 amWNW 2.9 7.0------ 55.8-----
2024-04-14 08:06 amENE 1.0 4.1------ 55.4-----
2024-04-14 08:00 am SE 2.9 6.0------------
2024-04-14 07:54 am S 2.9 5.1------------
2024-04-14 07:48 am S 2.9 7.0------------
2024-04-14 07:42 amSSE 1.9 5.1------------
2024-04-14 07:36 am S 4.1 8.9------------
2024-04-14 07:30 am W 1.9 5.1------ 53.4-----
2024-04-14 07:24 am S 2.9 6.0------ 53.2-----
2024-04-14 07:18 amSSE 2.9 7.0------------
2024-04-14 07:12 amSSE 1.9 4.1------------
2024-04-14 07:06 amSSE 1.9 5.1------------
2024-04-14 07:00 am SE 2.9 5.1------ 52.7-----
2024-04-14 06:54 amSSE 1.9 5.1------ 52.2-----
2024-04-14 06:48 am SE 2.9 5.1------------
2024-04-14 06:42 amSSE 1.9 5.1------------
2024-04-14 06:36 amSSE 2.9 5.1------------
2024-04-14 06:30 amESE 1.9 5.1------ 52.3-----
2024-04-14 06:24 am S 1.9 5.1------ 52.2-----
2024-04-14 06:18 am SE 2.9 6.0------ 52.2-----
2024-04-14 06:12 amSSE 4.1 7.0------ 52.3-----
2024-04-14 06:06 am SE 2.9 7.0------ 52.3-----
2024-04-14 06:00 am SW 2.9 8.0------ 52.7-----
2024-04-14 05:54 am SW 1.9 5.1------ 52.5-----
2024-04-14 05:48 am SE 1.9 6.0------ 52.5-----
2024-04-14 05:42 am E 1.9 4.1------ 52.7-----
2024-04-14 05:36 amENE 1.0 2.9------ 52.7-----
2024-04-14 05:30 amWNW 1.9 7.0------------
2024-04-14 05:24 am W 7.0 8.9------------
2024-04-14 05:18 am W 5.1 7.0------ 52.0-----
2024-04-14 05:12 am W 6.0 8.9------ 51.8-----
2024-04-14 05:06 am W 7.0 9.9------ 51.8-----
2024-04-14 05:00 amWNW 4.1 8.0------ 52.7-----
2024-04-14 04:54 am N 1.0 4.1------ 53.2-----
2024-04-14 04:48 amWNW 2.9 8.0------ 53.2-----
2024-04-14 04:42 amESE 1.9 4.1------ 53.2-----
2024-04-14 04:36 amSSE 2.9 6.0------ 53.6-----
2024-04-14 04:30 amSSE 2.9 7.0------ 53.6-----
2024-04-14 04:24 am S 2.9 7.0------ 54.0-----
2024-04-14 04:18 amSSW 4.1 7.0------ 54.1-----
2024-04-14 04:12 am SW 2.9 6.0------ 54.3-----
2024-04-14 04:06 am SW 4.1 7.0------ 54.5-----
2024-04-14 04:00 am S 2.9 5.1------ 54.3-----
2024-04-14 03:54 am S 2.9 5.1------ 54.3-----
2024-04-14 03:48 am S 4.1 7.0------ 54.3-----
2024-04-14 03:42 am S 5.1 8.9------ 54.5-----
2024-04-14 03:36 am S 4.1 5.1------ 55.2-----
2024-04-14 03:30 am S 5.1 7.0------ 55.4-----
2024-04-14 03:24 am S 4.1 8.0------ 55.6-----
2024-04-14 03:18 am S 4.1 7.0------ 55.0-----
2024-04-14 03:12 amWNW 1.9 2.9------ 55.0-----
2024-04-14 03:06 am W 4.1 6.0------ 55.2-----
2024-04-14 03:00 amWSW 1.9 4.1------ 55.0-----
2024-04-14 02:54 amSSW 2.9 5.1------ 54.5-----
2024-04-14 02:48 amSSW 2.9 6.0------ 54.3-----
2024-04-14 02:42 am S 4.1 5.1------ 54.5-----
2024-04-14 02:36 am S 4.1 5.1------ 54.7-----
2024-04-14 02:30 amSSW 4.1 6.0------ 54.7-----
2024-04-14 02:24 am S 1.9 4.1------ 55.0-----
2024-04-14 02:18 amSSW 1.0 2.9------ 55.6-----
2024-04-14 02:12 amWSW 1.9 4.1------ 56.5-----
2024-04-14 02:06 amWSW 2.9 5.1------ 56.3-----
2024-04-14 02:00 am SW 2.9 5.1------ 56.3-----
2024-04-14 01:54 amSSW 4.1 5.1------ 56.1-----
2024-04-14 01:48 amSSW 2.9 5.1------ 56.1-----
2024-04-14 01:42 am S 4.1 5.1------ 55.8-----
2024-04-14 01:36 amSSW 2.9 4.1------ 56.1-----
2024-04-14 01:30 amSSW 1.9 4.1------ 56.5-----
2024-04-14 01:24 am SW 1.0 2.9------ 56.7-----
2024-04-14 01:18 am SW 1.9 2.9------ 56.7-----
2024-04-14 01:12 amWSW 1.9 5.1------ 57.2-----
2024-04-14 01:06 amWSW 1.9 5.1------ 57.2-----
2024-04-14 01:00 am W 2.9 5.1------ 57.2-----
2024-04-14 12:54 amWSW 1.9 4.1------ 57.6-----